• Join FlightAware (Why Join?)
  • Login
  • US Flag 
12:22PM EDT


 

Airport Tracker/Info


-or-


 

Live Flight TrackerFlight Track Log ✈ N40BZ ✈ 22-Jul-2013 ✈ KTEB - KBUF

Flight Track Log - Related Links

Times and Time Zones

All times are in EDT time to prevent confusion due to time zone crossing. See the N40BZ flight status page for this flight to view local times or setup timezone preferences in your user account.

Time Position Orientation Groundspeed Altitude Reporting Facility
EDT Latitude Longitude Course Direction KTS MPH feet Rate Location/Type
11:22AM 40.9000 -74.0500 360° North 128 147 1,800  Level New York TRACON
11:23AM 40.9000 -74.1000 270° West 129 148 2,600 900 Climbing New York TRACON
11:24AM 40.9167 -74.1500 294° West 129 148 3,600 660 Climbing New York TRACON
11:25AM 40.9167 -74.2000 270° West 144 166 4,000 180 Climbing New York TRACON
11:26AM 40.9167 -74.2500 270° West 180 207 4,000  Level New York TRACON
11:27AM 40.8667 -74.2667 194° South 170 196 4,000  Level New York TRACON
11:28AM 40.8333 -74.3000 217° Southwest 170 196 4,000  Level New York TRACON
11:29AM 40.8000 -74.3500 229° Southwest 171 197 4,000  Level New York TRACON
11:30AM 40.7833 -74.4000 246° West 171 197 4,000  Level New York TRACON
11:31AM 40.7500 -74.4500 229° Southwest 172 198 4,000  Level New York TRACON
11:32AM 40.7167 -74.5000 229° Southwest 171 197 4,000  Level New York TRACON
11:33AM 40.6833 -74.5500 229° Southwest 173 199 4,000  Level New York TRACON
11:34AM 40.6667 -74.6000 246° West 174 200 4,000  Level New York TRACON
11:35AM 40.6333 -74.6500 229° Southwest 173 199 4,000 120 Level New York TRACON
11:36AM 40.6000 -74.7000 229° Southwest 168 193 4,300 600 Climbing New York TRACON
11:37AM 40.5833 -74.7667 252° West 152 175 5,300 720 Climbing New York TRACON
11:38AM 40.5833 -74.8167 270° West 152 175 5,900 120 Climbing New York TRACON
11:40AM 40.5649 -74.9275 258° West  Level FlightAware Approximate
11:47AM 40.5585 -75.3571 272° West  Level FlightAware Approximate
11:48AM 40.5601 -75.4184 272° West  Level FlightAware Approximate
11:49AM 40.5617 -75.4797 272° West  Level FlightAware Approximate
11:50AM 40.5632 -75.5410 272° West  Level FlightAware Approximate
11:51AM 40.5647 -75.6023 272° West  Level FlightAware Approximate
11:52AM 40.5662 -75.6636 272° West  Level FlightAware Approximate
11:53AM 40.5898 -75.7117 317° Northwest  Level FlightAware Approximate
11:54AM 40.6238 -75.7536 317° Northwest  Level FlightAware Approximate
11:55AM 40.6579 -75.7955 317° Northwest  Level FlightAware Approximate
11:56AM 40.6919 -75.8375 317° Northwest  Level FlightAware Approximate
11:57AM 40.7259 -75.8795 317° Northwest  Level FlightAware Approximate
11:58AM 40.7599 -75.9216 317° Northwest  Level FlightAware Approximate
11:58AM 41.0017 -75.8189 317° Northwest 185 213 8,000  Level New York Center
11:59AM 40.7939 -75.9637 317° Northwest  Level FlightAware Approximate
11:59AM 41.0239 -75.8867 294° West 185 213 8,300  Level New York Center
12:00PM 40.8279 -76.0058 317° Northwest  Level FlightAware Approximate
12:00PM 41.0444 -75.9406 297° West 178 205 8,700  Level New York Center
12:01PM 40.8619 -76.0479 317° Northwest  Level FlightAware Approximate
12:01PM 41.0647 -75.9969 296° West 178 205 9,200  Level New York Center
12:02PM 40.8962 -76.0896 317° Northwest  Level FlightAware Approximate
12:02PM 41.0814 -76.0453 295° West 173 199 9,700  Level New York Center
12:03PM 41.1036 -76.1103 294° West 173 199 10,000 120 Climbing New York Center
12:04PM 41.1239 -76.1669 295° West 173 199 10,000  Level New York Center
12:05PM 41.1458 -76.2292 295° West 178 205 10,000  Level New York Center
12:06PM 41.1664 -76.2833 297° West 184 212 10,000  Level New York Center
12:07PM 41.1883 -76.3458 295° West 184 212 10,000  Level New York Center
12:08PM 41.2103 -76.4139 293° West 179 206 10,000  Level New York Center
12:09PM 41.2289 -76.4622 297° West 179 206 10,000  Level New York Center
12:10PM 41.2611 -76.5283 303° West 179 206 10,000  Level New York Center
12:11PM 41.2964 -76.5728 317° Northwest 179 206 10,000  Level New York Center
12:12PM 41.3336 -76.6203 316° Northwest 189 217 10,000  Level New York Center
12:13PM 41.3767 -76.6739 317° Northwest 189 217 10,000  Level New York Center
12:14PM 41.4119 -76.7211 315° West 189 217 10,000  Level New York Center
12:15PM 41.4492 -76.7689 316° Northwest 189 217 10,000  Level New York Center
12:16PM 41.4881 -76.8192 316° Northwest 189 217 10,000  Level New York Center
12:17PM 41.5256 -76.8642 318° Northwest 189 217 10,000  Level New York Center
12:18PM 41.5942 -76.9567 315° West 186 214 10,000  Level Cleveland Center
12:19PM 41.6375 -77.0072 319° Northwest 191 220 10,000  Level Cleveland Center
12:20PM 41.6764 -77.0550 317° Northwest 191 220 10,000 480 Level Cleveland Center
12:21PM 41.7092 -77.1006 314° West 186 214 11,000 960 Climbing Cleveland Center
12:22PM 41.7414 -77.1322 324° Northwest 165 190 12,000 480 Climbing Cleveland Center
12:23PM 41.7761 -77.1778 316° Northwest 160 184 12,000  Level Cleveland Center
12:24PM 41.8108 -77.2206 317° Northwest 166 191 12,000  Level Cleveland Center
12:25PM 41.8497 -77.2686 317° Northwest 178 205 12,000  Level Cleveland Center
12:26PM 41.8844 -77.3169 314° West 178 205 12,000  Level Cleveland Center
12:27PM 41.9211 -77.3653 316° Northwest 183 211 12,000  Level Cleveland Center
12:28PM 41.9600 -77.4136 317° Northwest 183 211 12,000  Level Cleveland Center
12:29PM 41.9883 -77.4514 315° West 183 211 12,000  Level Cleveland Center
12:30PM 42.0250 -77.4972 317° Northwest 183 211 12,000  Level Cleveland Center
12:31PM 42.0703 -77.5564 316° Northwest 192 221 12,000  Level Cleveland Center
12:32PM 42.1006 -77.5997 313° West 187 215 12,000  Level Cleveland Center
12:33PM 42.1394 -77.6511 316° Northwest 187 215 12,000  Level Cleveland Center
12:34PM 42.1761 -77.7000 315° West 187 215 12,000  Level Cleveland Center
12:35PM 42.2128 -77.7489 315° West 187 215 12,000  Level Cleveland Center
12:36PM 42.2514 -77.7975 317° Northwest 187 215 12,000 -120 Level Cleveland Center
12:37PM 42.2881 -77.8492 314° West 187 215 11,800 -300 Descending Cleveland Center
12:38PM 42.3269 -77.8983 317° Northwest 187 215 11,400 -540 Descending Cleveland Center
12:39PM 42.3678 -77.9528 315° West 187 215 10,800 -660 Descending Cleveland Center
12:40PM 42.4086 -78.0072 315° West 192 221 10,100 -720 Descending Cleveland Center
12:41PM 42.4494 -78.0619 315° West 197 227 9,400 -720 Descending Cleveland Center
12:42PM 42.4903 -78.1167 315° West 202 232 8,700 -720 Descending Cleveland Center
12:43PM 42.5308 -78.1714 315° West 202 232 8,000 -660 Descending Cleveland Center
12:44PM 42.5717 -78.2233 317° Northwest 202 232 7,400 -540 Descending Cleveland Center
12:45PM 42.6103 -78.2783 314° West 202 232 7,000 -480 Descending Cleveland Center
12:46PM 42.6489 -78.3306 315° West 197 227 6,500 -600 Descending Cleveland Center
12:47PM 42.6814 -78.3944 305° West 197 227 5,800 -780 Descending Cleveland Center
12:48PM 42.7200 -78.4581 310° West 197 227 5,000 -780 Descending Cleveland Center
12:49PM 42.7767 -78.4758 347° North 199 229 4,300 -540 Descending Cleveland Center
12:50PM 42.8231 -78.5111 331° Northwest 199 229 4,000 -660 Descending Cleveland Center
12:53PM 42.9000 -78.6333 311° West 193 222 2,200 -840 Descending Buffalo TRACON
12:54PM 42.9333 -78.7000 304° West 169 194 1,200 -960 Descending Buffalo TRACON
12:56PM 42.9333 -78.7167 324° Northwest  Level FlightAware Approximate
01:03PM 42.9404 -78.7306 324° Northwest  Level Estimated